DW4408 Weather Reports


Display with metric or nautical units.
time (UTC)temp
F
wind
direction
speed
MPH
gust
MPH
rain 1hr
in
rain 24hr
in
rain mn
in
humidity
%
barometer
mb
20240616150047 61 346 2.0 9.0 0.00 0.00 0.00 14 1005.0
20240616144543 60 331 1.0 6.0 0.00 0.00 0.00 13 1004.9
20240616143046 60 348 2.0 9.0 0.00 0.00 0.00 16 1005.0
20240616141546 59 21 1.0 5.0 0.00 0.00 0.00 21 1004.9
20240616140043 58 330 0.0 4.0 0.00 0.00 0.00 24 1004.8
20240616134537 57 33 0.0 4.0 0.00 0.00 0.00 25 1004.7
20240616133038 56 22 1.0 3.0 0.00 0.00 0.00 29 1004.9
20240616131535 57 26 0.0 2.0 0.00 0.00 0.00 29 1004.7
20240616130034 56 33 0.0 2.0 0.00 0.00 0.00 29 1004.7
20240616124538 56 24 1.0 4.0 0.00 0.00 0.00 28 1004.7
20240616123032 56 13 0.0 3.0 0.00 0.00 0.00 29 1004.3
20240616121527 57 341 0.0 2.0 0.00 0.00 0.00 28 1004.4
20240616120025 57 351 0.0 1.0 0.00 0.00 0.00 26 1004.2
20240616114522 58 317 0.0 4.0 0.00 0.00 0.00 24 1003.9
20240616113019 58 75 1.0 6.0 0.00 0.00 0.00 21 1003.7
20240616111518 59 316 0.0 8.0 0.00 0.00 0.00 20 1003.5
20240616110025 59 327 1.0 6.0 0.00 0.00 0.00 21 1003.3
20240616104512 59 334 0.0 4.0 0.00 0.00 0.00 24 1002.9
20240616103008 59 348 1.0 11.0 0.00 0.00 0.00 25 1002.3
20240616101506 60 13 1.0 14.0 0.00 0.00 0.00 26 1001.9
20240616100003 60 20 2.0 8.0 0.00 0.00 0.00 26 1001.8
20240616094507 61 360 2.0 9.0 0.00 0.00 0.00 25 1001.7
20240616093112 61 350 2.0 6.0 0.00 0.00 0.00 25 1001.8
20240616091606 61 342 1.0 5.0 0.00 0.00 0.00 28 1001.2
20240616090056 61 24 1.0 4.0 0.00 0.00 0.00 31 1000.9
20240616084554 61 28 0.0 4.0 0.00 0.00 0.00 33 1000.6
20240616083054 62 331 0.0 2.0 0.00 0.00 0.00 34 1000.2
20240616081549 62 5 1.0 4.0 0.00 0.00 0.00 34 999.9
20240616080049 62 320 1.0 6.0 0.00 0.00 0.00 34 999.9
20240616074546 62 11 2.0 9.0 0.00 0.00 0.00 35 999.9
20240616073044 62 360 1.0 6.0 0.00 0.00 0.00 37 999.7
20240616071543 64 314 2.0 8.0 0.00 0.00 0.00 40 999.4
20240616070036 65 82 1.0 5.0 0.00 0.00 0.00 40 999.1
20240616064538 66 311 1.0 8.0 0.00 0.00 0.00 41 998.2
20240616063028 67 33 4.0 14.0 0.00 0.00 0.00 39 997.4
20240616061527 69 314 2.0 9.0 0.00 0.00 0.00 40 997.0
20240616060021 66 5 2.0 10.0 0.00 0.00 0.00 41 996.0
20240616054522 62 37 1.0 4.0 0.00 0.00 0.00 50 995.1
20240616053021 63 158 0.0 0.0 0.00 0.00 0.00 47 993.8
20240616051534 64 158 0.0 0.0 0.00 0.00 0.00 46 993.7
20240616050021 64 158 0.0 0.0 0.00 0.00 0.00 44 993.6
20240616044520 65 158 0.0 0.0 0.00 0.00 0.00 42 993.5
20240616043019 66 160 0.0 0.0 0.00 0.00 0.00 42 993.4
20240616041520 68 160 0.0 0.0 0.00 0.00 0.00 39 993.4
20240616040016 70 160 0.0 0.0 0.00 0.00 0.00 35 993.3
20240616034516 72 160 0.0 0.0 0.00 0.00 0.00 35 993.3
20240616033021 74 160 0.0 0.0 0.00 0.00 0.00 31 993.5
20240616031518 76 160 0.0 1.0 0.00 0.00 0.00 26 993.7
20240616030015 79 160 0.0 0.0 0.00 0.00 0.00 22 993.5
20240616024515 82 160 0.0 0.0 0.00 0.00 0.00 20 993.3
20240616023018 83 164 0.0 4.0 0.00 0.00 0.00 16 992.9
20240616021513 84 288 0.0 3.0 0.00 0.00 0.00 16 992.8
20240616020012 85 156 0.0 3.0 0.00 0.00 0.00 15 993.0
20240616014514 86 150 0.0 4.0 0.00 0.00 0.00 15 993.1
20240616013011 87 270 0.0 7.0 0.00 0.00 0.00 13 993.2
20240616011508 87 298 0.0 3.0 0.00 0.00 0.00 14 993.6
20240616010008 88 157 1.0 5.0 0.00 0.00 0.00 14 993.6
20240616004518 88 136 0.0 1.0 0.00 0.00 0.00 16 993.5
20240616003011 87 242 0.0 1.0 0.00 0.00 0.00 16 993.5
20240616001505 88 155 0.0 4.0 0.00 0.00 0.00 16 993.6
20240616000004 89 331 0.0 2.0 0.00 0.00 0.00 15 994.2
20240615234503 90 138 0.0 1.0 0.00 0.00 0.00 18 994.0
20240615233104 91 115 0.0 2.0 0.00 0.00 0.00 18 994.0
20240615231559 91 106 0.0 2.0 0.00 0.00 0.00 14 994.2
20240615230059 92 167 0.0 3.0 0.00 0.00 0.00 12 994.3
20240615224601 92 149 0.0 3.0 0.00 0.00 0.00 14 994.4
20240615223056 91 294 0.0 11.0 0.00 0.00 0.00 13 994.9
20240615221602 91 263 0.0 1.0 0.00 0.00 0.00 13 995.2
20240615220053 90 277 0.0 3.0 0.00 0.00 0.00 13 995.5
20240615214604 90 319 0.0 5.0 0.00 0.00 0.00 13 995.8
20240615213052 90 208 4.0 16.0 0.00 0.00 0.00 9 996.6
20240615211555 92 339 1.0 5.0 0.00 0.00 0.00 10 995.8
20240615210050 95 146 0.0 5.0 0.00 0.00 0.00 10 995.4
20240615204548 95 242 2.0 8.0 0.00 0.00 0.00 8 995.6
20240615203047 96 225 0.0 5.0 0.00 0.00 0.00 7 995.7
20240615201601 95 324 2.0 6.0 0.00 0.00 0.00 9 995.9
20240615200045 94 173 1.0 7.0 0.00 0.00 0.00 16 996.2
20240615194551 93 5 1.0 8.0 0.00 0.00 0.00 26 996.6
20240615193031 92 322 0.0 4.0 0.00 0.00 0.00 27 997.2
20240615191526 90 293 0.0 5.0 0.00 0.00 0.00 29 997.5
20240615190031 90 224 1.0 5.0 0.00 0.00 0.00 29 997.9
20240615184525 90 294 0.0 5.0 0.00 0.00 0.00 30 998.3
20240615183015 89 327 1.0 4.0 0.00 0.00 0.00 31 998.6
20240615181514 89 184 1.0 6.0 0.00 0.00 0.00 30 998.8
20240615180010 88 136 1.0 3.0 0.00 0.00 0.00 30 999.2
20240615174510 88 128 1.0 3.0 0.00 0.00 0.00 30 999.4
20240615173012 89 338 0.0 5.0 0.00 0.00 0.00 28 999.5
20240615171609 88 5 1.0 4.0 0.00 0.00 0.00 28 999.7
20240615170106 87 330 0.0 4.0 0.00 0.00 0.00 28 1000.0
20240615164552 87 348 0.0 5.0 0.00 0.00 0.00 29 1000.3
20240615163049 86 190 0.0 5.0 0.00 0.00 0.00 32 1000.6
20240615161544 85 325 0.0 4.0 0.00 0.00 0.00 33 1000.8
20240615160047 84 155 0.0 3.0 0.00 0.00 0.00 35 1001.0
20240615154535 82 15 0.0 5.0 0.00 0.00 0.00 36 1001.4
20240615153031 80 323 0.0 2.0 0.00 0.00 0.00 36 1001.6
20240615151540 77 257 0.0 1.0 0.00 0.00 0.00 41 1001.6